Time;durP1;ratioP1;P1;durP2;ratioP2;P2;SDS_P1;SDS_P2;PMS_P1;PMS_P2;Temp;Humidity;BMP_temperature;BMP_pressure;BME280_temperature;BME280_humidity;BME280_pressure;Samples;Min_cycle;Max_cycle;Signal;HPM_P1;HPM_P2
2023/12/30 00:02:04;;;;;;;50.35;7.28;;;;;;;;;;5062464;28;20028;-42
2023/12/30 00:04:31;;;;;;;60.60;7.90;;;;;;;;;;5054856;28;20073;-42
2023/12/30 00:06:58;;;;;;;62.22;9.88;;;;;;;;;;5066780;28;20141;-42
2023/12/30 00:09:25;;;;;;;45.08;8.38;;;;;;;;;;5060715;28;20174;-44
2023/12/30 00:11:52;;;;;;;51.80;7.60;;;;;;;;;;5067697;28;20059;-42
2023/12/30 00:14:19;;;;;;;59.00;7.88;;;;;;;;;;5055487;28;20029;-42
2023/12/30 00:16:46;;;;;;;46.25;7.60;;;;;;;;;;5051745;28;20033;-45
2023/12/30 00:19:13;;;;;;;54.78;7.10;;;;;;;;;;5051868;28;20048;-42
2023/12/30 00:21:40;;;;;;;52.00;6.88;;;;;;;;;;5062859;28;20036;-42
2023/12/30 00:24:08;;;;;;;50.05;6.78;;;;;;;;;;5066289;28;20029;-42
2023/12/30 00:26:35;;;;;;;49.05;6.43;;;;;;;;;;5053394;28;20024;-42
2023/12/30 00:29:02;;;;;;;45.50;7.53;;;;;;;;;;5051247;28;20044;-42
2023/12/30 00:31:30;;;;;;;66.43;7.25;;;;;;;;;;5062415;28;20429;-42
2023/12/30 00:33:58;;;;;;;64.32;8.63;;;;;;;;;;5061221;28;20062;-42
2023/12/30 00:36:25;;;;;;;57.97;8.27;;;;;;;;;;5067573;28;20634;-40
2023/12/30 00:38:55;;;;;;;74.75;9.38;;;;;;;;;;5068971;28;20028;-40
2023/12/30 00:41:22;;;;;;;71.43;9.00;;;;;;;;;;5070032;28;20059;-45
2023/12/30 00:43:50;;;;;;;85.78;8.75;;;;;;;;;;5065455;28;20064;-40
2023/12/30 00:46:19;;;;;;;59.60;7.80;;;;;;;;;;5064598;28;20078;-42
2023/12/30 00:48:46;;;;;;;53.05;6.97;;;;;;;;;;5057140;28;20033;-40
2023/12/30 00:51:13;;;;;;;49.25;6.45;;;;;;;;;;5066134;28;20025;-40
2023/12/30 00:53:40;;;;;;;45.72;7.13;;;;;;;;;;5062566;28;20037;-40
2023/12/30 00:56:07;;;;;;;50.67;8.50;;;;;;;;;;5056975;28;20112;-40
2023/12/30 00:58:34;;;;;;;51.25;8.00;;;;;;;;;;5060096;28;20031;-40
2023/12/30 01:01:01;;;;;;;53.40;8.63;;;;;;;;;;5061858;28;20058;-40
2023/12/30 01:03:28;;;;;;;55.00;8.73;;;;;;;;;;5058199;28;20029;-40
2023/12/30 01:05:55;;;;;;;34.60;7.90;;;;;;;;;;5056034;28;20029;-40
2023/12/30 01:08:22;;;;;;;46.95;8.38;;;;;;;;;;5055408;28;20032;-40
2023/12/30 01:10:49;;;;;;;39.13;7.80;;;;;;;;;;5058147;28;20482;-40
2023/12/30 01:13:16;;;;;;;36.60;7.60;;;;;;;;;;5064076;28;20037;-39
2023/12/30 01:15:43;;;;;;;40.72;6.97;;;;;;;;;;5062242;28;20029;-39
2023/12/30 01:18:11;;;;;;;36.55;7.95;;;;;;;;;;5063331;28;20067;-40
2023/12/30 01:20:38;;;;;;;41.55;8.23;;;;;;;;;;5066600;28;20739;-40
2023/12/30 01:23:06;;;;;;;43.50;7.88;;;;;;;;;;5065779;28;20036;-40
2023/12/30 01:25:33;;;;;;;53.10;8.80;;;;;;;;;;5060821;28;20047;-40
2023/12/30 01:28:00;;;;;;;33.20;8.80;;;;;;;;;;5051010;28;20071;-40
2023/12/30 01:30:27;;;;;;;36.42;6.85;;;;;;;;;;5054636;28;20032;-40
2023/12/30 01:32:54;;;;;;;27.50;6.43;;;;;;;;;;5055478;28;20036;-40
2023/12/30 01:35:21;;;;;;;29.77;6.72;;;;;;;;;;5060731;28;20107;-40
2023/12/30 01:37:48;;;;;;;33.33;5.82;;;;;;;;;;5063637;28;20210;-40
2023/12/30 01:40:15;;;;;;;35.00;5.35;;;;;;;;;;5056660;28;20031;-39
2023/12/30 01:42:42;;;;;;;20.85;4.57;;;;;;;;;;5052480;28;20021;-39
2023/12/30 01:45:09;;;;;;;21.75;4.60;;;;;;;;;;5051254;28;20029;-39
2023/12/30 01:47:36;;;;;;;31.63;5.75;;;;;;;;;;5052587;28;20052;-39
2023/12/30 01:50:05;;;;;;;19.58;4.70;;;;;;;;;;5070734;28;20120;-39
2023/12/30 01:52:34;;;;;;;25.50;4.63;;;;;;;;;;5063245;28;20041;-40
2023/12/30 01:55:01;;;;;;;21.85;4.70;;;;;;;;;;5055255;28;20078;-40
2023/12/30 01:57:28;;;;;;;20.35;4.82;;;;;;;;;;5054424;28;20807;-40
2023/12/30 01:59:55;;;;;;;26.52;4.45;;;;;;;;;;5053748;28;20047;-40
2023/12/30 02:02:22;;;;;;;18.85;4.28;;;;;;;;;;5057415;28;20455;-40
2023/12/30 02:04:50;;;;;;;16.80;4.15;;;;;;;;;;5056276;28;20397;-41
2023/12/30 02:07:17;;;;;;;17.52;4.82;;;;;;;;;;5054172;28;20054;-40
2023/12/30 02:09:47;;;;;;;12.68;4.15;;;;;;;;;;5057341;28;20047;-41
2023/12/30 02:12:14;;;;;;;23.77;4.10;;;;;;;;;;5071446;28;20418;-40
2023/12/30 02:14:41;;;;;;;14.65;3.78;;;;;;;;;;5055342;28;20055;-40
2023/12/30 02:17:08;;;;;;;21.33;3.83;;;;;;;;;;5058260;28;20029;-40
2023/12/30 02:19:36;;;;;;;21.92;4.25;;;;;;;;;;5062277;28;20035;-40
2023/12/30 02:22:02;;;;;;;21.63;4.47;;;;;;;;;;5059444;28;20021;-40
2023/12/30 02:24:29;;;;;;;22.48;3.75;;;;;;;;;;5054839;28;20032;-40
2023/12/30 02:26:56;;;;;;;16.50;3.75;;;;;;;;;;5056443;28;20064;-40
2023/12/30 02:29:23;;;;;;;19.55;4.00;;;;;;;;;;5056529;28;20071;-46
2023/12/30 02:31:50;;;;;;;30.77;4.15;;;;;;;;;;5053561;28;20756;-42
2023/12/30 02:34:18;;;;;;;22.92;4.05;;;;;;;;;;5060962;28;20043;-43
2023/12/30 02:36:46;;;;;;;18.45;4.00;;;;;;;;;;5066207;28;20029;-44
2023/12/30 02:39:13;;;;;;;24.77;3.95;;;;;;;;;;5063588;28;20375;-44
2023/12/30 02:41:40;;;;;;;16.60;3.97;;;;;;;;;;5061323;28;20024;-43
2023/12/30 02:44:07;;;;;;;16.33;4.13;;;;;;;;;;5062371;28;20025;-43
2023/12/30 02:46:34;;;;;;;15.27;3.85;;;;;;;;;;5061871;28;20213;-43
2023/12/30 02:49:05;;;;;;;14.00;3.53;;;;;;;;;;5060810;28;20498;-43
2023/12/30 02:51:32;;;;;;;11.57;3.70;;;;;;;;;;5061733;28;20032;-43
2023/12/30 02:53:59;;;;;;;18.67;3.47;;;;;;;;;;5063801;28;20036;-43
2023/12/30 02:56:27;;;;;;;10.30;2.90;;;;;;;;;;5065725;28;20025;-43
2023/12/30 02:58:57;;;;;;;13.27;3.22;;;;;;;;;;5056231;28;20491;-43
2023/12/30 03:01:28;;;;;;;10.18;3.30;;;;;;;;;;5060533;28;20533;-44
2023/12/30 03:03:56;;;;;;;14.30;3.00;;;;;;;;;;5065719;28;20758;-44
2023/12/30 03:06:23;;;;;;;14.73;3.25;;;;;;;;;;5060862;28;20021;-43
2023/12/30 03:08:51;;;;;;;12.85;3.00;;;;;;;;;;5056566;28;20024;-44
2023/12/30 03:11:18;;;;;;;13.00;2.80;;;;;;;;;;5058615;28;20021;-43
2023/12/30 03:13:45;;;;;;;16.73;2.97;;;;;;;;;;5055427;28;20056;-43
2023/12/30 03:16:14;;;;;;;12.85;3.10;;;;;;;;;;5057614;28;20021;-42
2023/12/30 03:18:41;;;;;;;15.40;2.38;;;;;;;;;;5055173;28;20090;-41
2023/12/30 03:21:09;;;;;;;26.67;3.22;;;;;;;;;;5057540;28;20031;-43
2023/12/30 03:23:37;;;;;;;21.70;2.88;;;;;;;;;;5055176;28;20025;-41
2023/12/30 03:26:05;;;;;;;26.55;2.40;;;;;;;;;;5069506;28;20069;-40
2023/12/30 03:28:32;;;;;;;13.45;2.78;;;;;;;;;;5072241;28;20028;-41
2023/12/30 03:30:59;;;;;;;16.40;2.20;;;;;;;;;;5071507;28;20052;-41
2023/12/30 03:33:26;;;;;;;15.35;2.40;;;;;;;;;;5069682;28;20075;-44
2023/12/30 03:35:54;;;;;;;16.08;2.30;;;;;;;;;;5071099;28;20036;-42
2023/12/30 03:38:21;;;;;;;13.25;2.03;;;;;;;;;;5070859;28;20493;-41
2023/12/30 03:40:48;;;;;;;11.70;2.47;;;;;;;;;;5068744;28;20073;-42
2023/12/30 03:43:15;;;;;;;14.02;2.45;;;;;;;;;;5086757;28;20377;-41
2023/12/30 03:45:42;;;;;;;13.27;2.40;;;;;;;;;;5070700;28;20118;-41
2023/12/30 03:48:12;;;;;;;22.33;2.70;;;;;;;;;;5071523;28;20148;-44
2023/12/30 03:50:39;;;;;;;9.23;2.13;;;;;;;;;;5071307;28;20557;-41
2023/12/30 03:53:06;;;;;;;21.83;2.30;;;;;;;;;;5071505;28;20205;-41
2023/12/30 03:55:33;;;;;;;18.02;2.80;;;;;;;;;;5071705;28;20082;-41
2023/12/30 03:58:00;;;;;;;15.57;2.30;;;;;;;;;;5071978;28;20023;-41
2023/12/30 04:00:27;;;;;;;14.85;2.30;;;;;;;;;;5073167;28;20020;-42
2023/12/30 04:02:54;;;;;;;19.75;2.55;;;;;;;;;;5072664;28;20024;-41
2023/12/30 04:05:22;;;;;;;19.95;2.58;;;;;;;;;;5068376;28;20036;-41
2023/12/30 04:07:50;;;;;;;15.18;2.40;;;;;;;;;;5072206;28;20044;-41
2023/12/30 04:10:17;;;;;;;22.50;3.00;;;;;;;;;;5072057;28;20017;-41
2023/12/30 04:12:44;;;;;;;10.60;2.25;;;;;;;;;;5071946;28;20043;-43
2023/12/30 04:15:11;;;;;;;24.75;2.20;;;;;;;;;;5072186;28;20025;-41
2023/12/30 04:17:38;;;;;;;16.25;2.42;;;;;;;;;;5072218;28;20029;-41
2023/12/30 04:20:06;;;;;;;18.25;2.42;;;;;;;;;;5071413;28;20017;-41
2023/12/30 04:22:33;;;;;;;17.45;2.30;;;;;;;;;;5070622;28;20036;-41
2023/12/30 04:25:00;;;;;;;12.50;2.33;;;;;;;;;;5072010;28;20043;-41
2023/12/30 04:27:27;;;;;;;11.65;2.10;;;;;;;;;;5072075;28;20111;-43
2023/12/30 04:29:54;;;;;;;13.85;2.25;;;;;;;;;;5071439;28;20033;-41
2023/12/30 04:32:21;;;;;;;16.35;2.53;;;;;;;;;;5071561;28;20421;-41
2023/12/30 04:34:49;;;;;;;14.07;2.33;;;;;;;;;;5071857;28;20039;-43
2023/12/30 04:37:16;;;;;;;16.27;2.28;;;;;;;;;;5071814;28;20043;-39
2023/12/30 04:39:43;;;;;;;18.83;2.38;;;;;;;;;;5071969;28;20023;-39
2023/12/30 04:42:10;;;;;;;17.05;2.20;;;;;;;;;;5071738;28;20021;-39
2023/12/30 04:44:37;;;;;;;19.10;2.30;;;;;;;;;;5071856;28;20017;-39
2023/12/30 04:47:04;;;;;;;14.98;2.35;;;;;;;;;;5071876;28;20020;-40
2023/12/30 04:49:31;;;;;;;20.60;2.20;;;;;;;;;;5070364;28;20021;-40
2023/12/30 04:51:58;;;;;;;20.90;2.40;;;;;;;;;;5071407;28;20058;-40
2023/12/30 04:54:30;;;;;;;14.43;2.80;;;;;;;;;;5071777;28;20017;-39
2023/12/30 04:56:57;;;;;;;22.95;3.00;;;;;;;;;;5071715;28;20119;-39
2023/12/30 04:59:25;;;;;;;18.77;2.95;;;;;;;;;;5071702;28;20028;-39
2023/12/30 05:01:52;;;;;;;24.17;2.65;;;;;;;;;;5071449;28;20029;-39
2023/12/30 05:04:19;;;;;;;18.17;2.13;;;;;;;;;;5071630;28;20107;-40
2023/12/30 05:06:46;;;;;;;12.00;2.47;;;;;;;;;;5071543;28;20032;-40
2023/12/30 05:09:14;;;;;;;13.35;2.40;;;;;;;;;;5071648;28;20027;-39
2023/12/30 05:11:44;;;;;;;12.23;2.30;;;;;;;;;;5071202;28;20055;-39
2023/12/30 05:14:12;;;;;;;11.68;1.90;;;;;;;;;;5071489;28;20028;-40
2023/12/30 05:16:45;;;;;;;11.35;1.98;;;;;;;;;;5071532;28;20021;-40
2023/12/30 05:19:12;;;;;;;13.13;2.00;;;;;;;;;;5071514;28;20059;-39
2023/12/30 05:21:39;;;;;;;12.77;2.17;;;;;;;;;;5071450;28;20029;-39
2023/12/30 05:24:07;;;;;;;13.05;2.05;;;;;;;;;;5071487;28;20021;-39
2023/12/30 05:26:34;;;;;;;13.25;2.50;;;;;;;;;;5071430;28;20037;-39
2023/12/30 05:29:01;;;;;;;18.05;2.33;;;;;;;;;;5071458;28;20017;-39
2023/12/30 05:31:28;;;;;;;14.68;2.25;;;;;;;;;;5071393;28;20432;-39
2023/12/30 05:33:55;;;;;;;12.52;1.85;;;;;;;;;;5072497;28;20486;-39
2023/12/30 05:36:21;;;;;;;11.38;2.05;;;;;;;;;;5075379;28;20079;-40
2023/12/30 05:38:49;;;;;;;10.02;1.80;;;;;;;;;;5075551;28;20039;-39
2023/12/30 05:41:16;;;;;;;6.85;1.58;;;;;;;;;;5075177;28;20045;-40
2023/12/30 05:43:42;;;;;;;9.02;1.58;;;;;;;;;;5075327;28;20025;-39
2023/12/30 05:46:15;;;;;;;11.00;2.13;;;;;;;;;;5075222;28;20446;-39
2023/12/30 05:48:42;;;;;;;13.82;2.03;;;;;;;;;;5075072;28;20025;-39
2023/12/30 05:51:12;;;;;;;11.60;1.67;;;;;;;;;;5075037;28;20095;-39
2023/12/30 05:53:42;;;;;;;11.20;2.50;;;;;;;;;;5075011;28;20021;-39
2023/12/30 05:56:12;;;;;;;10.20;1.77;;;;;;;;;;5075006;28;20116;-39
2023/12/30 05:58:39;;;;;;;12.07;1.40;;;;;;;;;;5075051;28;20021;-39
2023/12/30 06:01:06;;;;;;;7.82;1.30;;;;;;;;;;5075586;28;20033;-39
2023/12/30 06:03:35;;;;;;;14.45;2.00;;;;;;;;;;5074740;28;20048;-40
2023/12/30 06:06:03;;;;;;;10.63;1.83;;;;;;;;;;5089615;28;20032;-39
2023/12/30 06:08:30;;;;;;;6.88;1.27;;;;;;;;;;5094764;28;20402;-39
2023/12/30 06:10:57;;;;;;;10.50;1.45;;;;;;;;;;5094952;28;20024;-39
2023/12/30 06:13:24;;;;;;;11.27;1.63;;;;;;;;;;5073625;28;20437;-39
2023/12/30 06:15:51;;;;;;;5.70;1.20;;;;;;;;;;5074659;28;20031;-40
2023/12/30 06:18:18;;;;;;;9.45;1.48;;;;;;;;;;5074620;28;20028;-40
2023/12/30 06:20:46;;;;;;;12.85;1.45;;;;;;;;;;5074562;28;20024;-40
2023/12/30 06:23:16;;;;;;;7.95;1.60;;;;;;;;;;5091559;28;20129;-39
2023/12/30 06:25:43;;;;;;;10.35;1.65;;;;;;;;;;5094749;28;20024;-39
2023/12/30 06:28:10;;;;;;;9.57;1.83;;;;;;;;;;5094602;28;20378;-39
2023/12/30 06:30:37;;;;;;;10.45;1.35;;;;;;;;;;5094607;28;20020;-39
2023/12/30 06:33:06;;;;;;;9.82;1.35;;;;;;;;;;5094639;28;20028;-39
2023/12/30 06:35:34;;;;;;;15.90;1.75;;;;;;;;;;5094460;28;20031;-39
2023/12/30 06:38:02;;;;;;;15.55;2.42;;;;;;;;;;5094492;28;20055;-39
2023/12/30 06:40:29;;;;;;;12.15;1.77;;;;;;;;;;5084922;28;20035;-39
2023/12/30 06:42:55;;;;;;;10.77;1.80;;;;;;;;;;5074156;28;20017;-39
2023/12/30 06:45:25;;;;;;;7.32;1.35;;;;;;;;;;5073711;28;20031;-40
2023/12/30 06:47:52;;;;;;;9.35;1.20;;;;;;;;;;5074134;28;20051;-39
2023/12/30 06:50:21;;;;;;;9.52;1.45;;;;;;;;;;5073966;28;20086;-40
2023/12/30 06:52:48;;;;;;;7.22;1.67;;;;;;;;;;5073879;28;20083;-39
2023/12/30 06:55:15;;;;;;;9.95;1.60;;;;;;;;;;5074005;28;20020;-39
2023/12/30 06:57:42;;;;;;;12.02;1.42;;;;;;;;;;5073976;28;20478;-39
2023/12/30 07:00:09;;;;;;;13.30;1.48;;;;;;;;;;5073807;28;20107;-39
2023/12/30 07:02:36;;;;;;;10.35;1.58;;;;;;;;;;5073726;28;20032;-39
2023/12/30 07:05:03;;;;;;;11.48;1.55;;;;;;;;;;5073766;28;20020;-39
2023/12/30 07:07:30;;;;;;;13.15;1.50;;;;;;;;;;5073683;28;20121;-39
2023/12/30 07:09:57;;;;;;;11.07;1.50;;;;;;;;;;5076918;28;20094;-38
2023/12/30 07:12:24;;;;;;;9.20;1.35;;;;;;;;;;5091853;28;20047;-39
2023/12/30 07:14:51;;;;;;;11.55;1.70;;;;;;;;;;5075708;28;20116;-39
2023/12/30 07:17:18;;;;;;;13.25;1.60;;;;;;;;;;5073554;28;20032;-39
2023/12/30 07:19:45;;;;;;;12.18;1.63;;;;;;;;;;5073363;28;20028;-40
2023/12/30 07:22:12;;;;;;;10.07;1.35;;;;;;;;;;5082347;28;20407;-39
2023/12/30 07:24:40;;;;;;;13.23;1.58;;;;;;;;;;5093507;28;20093;-39
2023/12/30 07:27:06;;;;;;;10.63;1.40;;;;;;;;;;5093463;28;20034;-39
2023/12/30 07:29:34;;;;;;;13.48;1.52;;;;;;;;;;5093499;28;20283;-39
2023/12/30 07:32:01;;;;;;;7.95;1.58;;;;;;;;;;5093118;28;20050;-39
2023/12/30 07:34:28;;;;;;;10.25;1.30;;;;;;;;;;5093319;28;20109;-39
2023/12/30 07:36:56;;;;;;;7.38;1.27;;;;;;;;;;5079776;28;20028;-39
2023/12/30 07:39:23;;;;;;;7.03;1.60;;;;;;;;;;5073102;28;20025;-39
2023/12/30 07:41:50;;;;;;;6.35;1.52;;;;;;;;;;5072909;28;20025;-39
2023/12/30 07:44:17;;;;;;;12.00;1.48;;;;;;;;;;5072904;28;20508;-40
2023/12/30 07:46:44;;;;;;;4.00;1.10;;;;;;;;;;5072952;28;20390;-39
2023/12/30 07:49:11;;;;;;;6.55;1.55;;;;;;;;;;5072816;28;20035;-39
2023/12/30 07:51:38;;;;;;;8.27;1.48;;;;;;;;;;5073698;28;20024;-39
2023/12/30 07:54:05;;;;;;;9.07;1.48;;;;;;;;;;5092983;28;20099;-39
2023/12/30 07:56:33;;;;;;;6.20;1.30;;;;;;;;;;5092085;28;20028;-38
2023/12/30 07:59:00;;;;;;;9.35;1.20;;;;;;;;;;5092883;28;20036;-39
2023/12/30 08:01:27;;;;;;;11.63;1.58;;;;;;;;;;5092768;28;20583;-39
2023/12/30 08:03:53;;;;;;;6.80;1.35;;;;;;;;;;5092909;28;20047;-39
2023/12/30 08:06:20;;;;;;;7.97;1.45;;;;;;;;;;5092827;28;20077;-39
2023/12/30 08:08:47;;;;;;;6.70;1.50;;;;;;;;;;5092715;28;20020;-39
2023/12/30 08:11:14;;;;;;;9.38;1.25;;;;;;;;;;5092580;28;20027;-39
2023/12/30 08:13:41;;;;;;;7.47;1.70;;;;;;;;;;5092527;28;20048;-39
2023/12/30 08:16:08;;;;;;;4.60;1.20;;;;;;;;;;5092609;28;20047;-39
2023/12/30 08:18:35;;;;;;;6.63;1.30;;;;;;;;;;5092541;28;20512;-39
2023/12/30 08:21:02;;;;;;;7.05;1.05;;;;;;;;;;5092445;28;20020;-39
2023/12/30 08:23:30;;;;;;;6.65;1.50;;;;;;;;;;5092448;28;20469;-39
2023/12/30 08:25:57;;;;;;;6.28;1.25;;;;;;;;;;5092476;28;20024;-39
2023/12/30 08:28:24;;;;;;;4.60;1.25;;;;;;;;;;5092461;28;20020;-39
2023/12/30 08:30:53;;;;;;;8.63;1.50;;;;;;;;;;5092499;28;20024;-39
2023/12/30 08:33:21;;;;;;;7.82;1.17;;;;;;;;;;5092191;28;20047;-39
2023/12/30 08:35:49;;;;;;;6.47;1.42;;;;;;;;;;5092277;28;20020;-39
2023/12/30 08:38:19;;;;;;;6.00;1.45;;;;;;;;;;5085903;28;20492;-39
2023/12/30 08:40:46;;;;;;;11.95;1.63;;;;;;;;;;5071831;28;20105;-39
2023/12/30 08:43:13;;;;;;;9.50;1.55;;;;;;;;;;5071847;28;20021;-38
2023/12/30 08:45:40;;;;;;;7.82;1.30;;;;;;;;;;5071841;28;20035;-39
2023/12/30 08:48:07;;;;;;;7.75;1.30;;;;;;;;;;5071888;28;20052;-39
2023/12/30 08:50:34;;;;;;;12.27;1.60;;;;;;;;;;5071680;28;20028;-39
2023/12/30 08:53:01;;;;;;;8.25;1.40;;;;;;;;;;5071689;28;20036;-39
2023/12/30 08:55:28;;;;;;;8.80;1.63;;;;;;;;;;5071758;28;20029;-39
2023/12/30 08:57:55;;;;;;;6.97;1.17;;;;;;;;;;5071633;28;20036;-39
2023/12/30 09:00:22;;;;;;;7.60;1.42;;;;;;;;;;5071540;28;20026;-39
2023/12/30 09:02:49;;;;;;;11.05;1.63;;;;;;;;;;5071692;28;20035;-39
2023/12/30 09:05:19;;;;;;;18.75;2.05;;;;;;;;;;5071695;28;20436;-39
2023/12/30 09:07:48;;;;;;;6.57;1.45;;;;;;;;;;5071483;28;20107;-38
2023/12/30 09:10:18;;;;;;;8.48;1.67;;;;;;;;;;5071601;28;20433;-38
2023/12/30 09:12:48;;;;;;;6.97;1.52;;;;;;;;;;5071146;28;20044;-38
2023/12/30 09:15:15;;;;;;;9.45;1.70;;;;;;;;;;5071566;28;20609;-39
2023/12/30 09:17:42;;;;;;;6.35;1.60;;;;;;;;;;5071590;28;20029;-39
2023/12/30 09:20:09;;;;;;;8.30;1.40;;;;;;;;;;5071524;28;20928;-39
2023/12/30 09:22:36;;;;;;;10.07;1.45;;;;;;;;;;5071475;28;20029;-39
2023/12/30 09:25:03;;;;;;;8.32;1.55;;;;;;;;;;5071447;28;20070;-38
2023/12/30 09:27:30;;;;;;;10.65;1.75;;;;;;;;;;5071403;28;20093;-39
2023/12/30 09:29:57;;;;;;;7.88;1.60;;;;;;;;;;5071393;28;20021;-39
2023/12/30 09:32:24;;;;;;;9.45;1.52;;;;;;;;;;5071352;28;20112;-39
2023/12/30 09:34:51;;;;;;;6.97;1.10;;;;;;;;;;5071354;28;20153;-39
2023/12/30 09:37:19;;;;;;;7.95;1.70;;;;;;;;;;5071308;28;20055;-39
2023/12/30 09:39:47;;;;;;;9.90;1.73;;;;;;;;;;5071327;28;20039;-39
2023/12/30 09:42:14;;;;;;;15.95;1.63;;;;;;;;;;5071382;28;20141;-39
2023/12/30 09:44:41;;;;;;;9.05;1.40;;;;;;;;;;5071243;28;20013;-38
2023/12/30 09:47:10;;;;;;;7.75;1.40;;;;;;;;;;5071322;28;20038;-39
2023/12/30 09:49:37;;;;;;;8.43;1.38;;;;;;;;;;5071250;28;20056;-39
2023/12/30 09:52:07;;;;;;;13.38;1.60;;;;;;;;;;5071108;28;20486;-39
2023/12/30 09:54:34;;;;;;;6.22;1.77;;;;;;;;;;5071166;28;20033;-39
2023/12/30 09:57:05;;;;;;;9.43;1.65;;;;;;;;;;5071207;28;20029;-39
2023/12/30 09:59:40;;;;;;;6.05;1.33;;;;;;;;;;5071211;28;20050;-38
2023/12/30 10:02:10;;;;;;;6.65;1.85;;;;;;;;;;5070797;28;20043;-39
2023/12/30 10:04:38;;;;;;;10.07;1.77;;;;;;;;;;5071157;28;20508;-39
2023/12/30 10:07:05;;;;;;;10.27;1.75;;;;;;;;;;5071077;28;20378;-39
2023/12/30 10:09:32;;;;;;;7.35;1.48;;;;;;;;;;5071038;28;20028;-39
2023/12/30 10:11:59;;;;;;;10.13;1.55;;;;;;;;;;5070705;28;20062;-39
2023/12/30 10:14:26;;;;;;;12.25;1.80;;;;;;;;;;5071027;28;20040;-38
2023/12/30 10:16:53;;;;;;;7.22;1.60;;;;;;;;;;5071068;28;20020;-38
2023/12/30 10:19:20;;;;;;;6.30;1.70;;;;;;;;;;5071048;28;20445;-39
2023/12/30 10:21:47;;;;;;;7.45;1.33;;;;;;;;;;5074500;28;20021;-39
2023/12/30 10:24:16;;;;;;;12.02;1.70;;;;;;;;;;5074552;28;20545;-38
2023/12/30 10:26:43;;;;;;;13.52;2.00;;;;;;;;;;5074328;28;20029;-39
2023/12/30 10:29:11;;;;;;;10.35;1.90;;;;;;;;;;5074525;28;20033;-39
2023/12/30 10:31:42;;;;;;;10.90;1.50;;;;;;;;;;5074268;28;20107;-38
2023/12/30 10:34:09;;;;;;;9.45;1.90;;;;;;;;;;5074259;28;20105;-39
2023/12/30 10:36:36;;;;;;;11.80;1.60;;;;;;;;;;5074323;28;20108;-39
2023/12/30 10:39:05;;;;;;;11.88;1.65;;;;;;;;;;5074162;28;20096;-39
2023/12/30 10:41:32;;;;;;;16.05;2.28;;;;;;;;;;5074161;28;20029;-39
2023/12/30 10:43:58;;;;;;;8.55;2.38;;;;;;;;;;5074253;28;20585;-39
2023/12/30 10:46:26;;;;;;;14.43;2.38;;;;;;;;;;5074211;28;20501;-39
2023/12/30 10:49:03;;;;;;;13.23;2.15;;;;;;;;;;5074336;28;20382;-39
2023/12/30 10:51:31;;;;;;;12.15;2.08;;;;;;;;;;5073871;28;20020;-39
2023/12/30 10:54:05;;;;;;;7.30;1.60;;;;;;;;;;5073983;28;20033;-39
2023/12/30 10:56:33;;;;;;;13.48;2.17;;;;;;;;;;5073978;28;20031;-39
2023/12/30 10:59:05;;;;;;;14.00;2.15;;;;;;;;;;5074179;28;20347;-39
2023/12/30 11:01:33;;;;;;;;;;;;;;;;;;5074184;28;20044;-39
2023/12/30 11:04:11;;;;;;;14.10;2.30;;;;;;;;;;5073734;28;19904;-39
2023/12/30 11:06:51;;;;;;;19.45;2.08;;;;;;;;;;5073761;28;20784;-39
2023/12/30 11:09:19;;;;;;;8.38;2.05;;;;;;;;;;5073669;28;20032;-39
2023/12/30 11:11:52;;;;;;;17.40;2.10;;;;;;;;;;5073434;28;20447;-39
2023/12/30 11:14:23;;;;;;;18.60;2.22;;;;;;;;;;5073681;28;20040;-39
2023/12/30 11:16:55;;;;;;;17.42;2.30;;;;;;;;;;5073588;28;20024;-39
2023/12/30 11:19:21;;;;;;;;;;;;;;;;;;5073933;28;20083;-39
2023/12/30 11:21:48;;;;;;;18.70;2.33;;;;;;;;;;5073443;28;19927;-39
2023/12/30 11:24:18;;;;;;;15.52;1.83;;;;;;;;;;5077812;28;20020;-39
2023/12/30 11:26:45;;;;;;;13.20;1.67;;;;;;;;;;5073544;28;20035;-39
2023/12/30 11:29:13;;;;;;;14.10;1.83;;;;;;;;;;5072579;28;20051;-39
2023/12/30 11:31:44;;;;;;;12.20;1.67;;;;;;;;;;5072494;28;20024;-39
2023/12/30 11:34:13;;;;;;;13.32;1.80;;;;;;;;;;5072482;28;20029;-38
2023/12/30 11:36:40;;;;;;;10.20;1.75;;;;;;;;;;5072393;28;20032;-39
2023/12/30 11:39:10;;;;;;;14.88;1.80;;;;;;;;;;5072605;28;20024;-39
2023/12/30 11:41:37;;;;;;;9.45;1.77;;;;;;;;;;5070132;28;20039;-38
2023/12/30 11:44:05;;;;;;;15.95;1.50;;;;;;;;;;5072350;28;20024;-38
2023/12/30 11:46:33;;;;;;;12.35;1.50;;;;;;;;;;5072268;28;20024;-39
2023/12/30 11:49:00;;;;;;;15.60;1.92;;;;;;;;;;5072405;28;20448;-39
2023/12/30 11:51:31;;;;;;;12.27;1.70;;;;;;;;;;5072154;28;20551;-39
2023/12/30 11:54:03;;;;;;;15.57;1.88;;;;;;;;;;5064928;28;20398;-39
2023/12/30 11:56:30;;;;;;;13.23;1.88;;;;;;;;;;5072019;28;20456;-39
2023/12/30 11:58:57;;;;;;;17.10;1.98;;;;;;;;;;5071771;28;20024;-40
2023/12/30 12:01:24;;;;;;;18.70;2.00;;;;;;;;;;5072116;28;20111;-42
2023/12/30 12:03:52;;;;;;;17.88;1.67;;;;;;;;;;5072330;28;20021;-41
2023/12/30 12:06:19;;;;;;;19.13;2.08;;;;;;;;;;5071426;28;20040;-40
2023/12/30 12:08:47;;;;;;;18.42;2.42;;;;;;;;;;5071677;28;20028;-41
2023/12/30 12:11:14;;;;;;;17.30;2.28;;;;;;;;;;5071967;28;20508;-40
2023/12/30 12:13:41;;;;;;;15.38;2.08;;;;;;;;;;5074543;28;20067;-40
2023/12/30 12:16:08;;;;;;;14.02;1.80;;;;;;;;;;5080167;28;20036;-41
2023/12/30 12:18:35;;;;;;;18.90;1.98;;;;;;;;;;5085547;28;20032;-41
2023/12/30 12:21:04;;;;;;;13.45;1.80;;;;;;;;;;5076531;28;20029;-40
2023/12/30 12:23:32;;;;;;;16.30;2.22;;;;;;;;;;5072096;28;20033;-40
2023/12/30 12:26:00;;;;;;;8.00;1.27;;;;;;;;;;5072162;28;20043;-40
2023/12/30 12:28:27;;;;;;;19.13;2.22;;;;;;;;;;5072178;28;20029;-40
2023/12/30 12:30:54;;;;;;;8.25;1.50;;;;;;;;;;5071996;28;20103;-40
2023/12/30 12:33:21;;;;;;;11.35;2.15;;;;;;;;;;5071916;28;20076;-40
2023/12/30 12:35:48;;;;;;;19.85;2.40;;;;;;;;;;5072001;28;20028;-40
2023/12/30 12:38:15;;;;;;;30.23;2.63;;;;;;;;;;5072016;28;20095;-40
2023/12/30 12:40:45;;;;;;;22.42;2.83;;;;;;;;;;5071820;28;20413;-40
2023/12/30 12:43:12;;;;;;;25.73;2.90;;;;;;;;;;5071513;28;20387;-40
2023/12/30 12:45:39;;;;;;;17.48;2.70;;;;;;;;;;5071935;28;20047;-40
2023/12/30 12:48:06;;;;;;;28.20;2.75;;;;;;;;;;5071880;28;20553;-42
2023/12/30 12:50:33;;;;;;;24.73;2.63;;;;;;;;;;5071168;28;20032;-40
2023/12/30 12:53:00;;;;;;;26.52;2.85;;;;;;;;;;5071671;28;20056;-41
2023/12/30 12:55:27;;;;;;;20.23;2.42;;;;;;;;;;5071724;28;20025;-40
2023/12/30 12:57:54;;;;;;;19.65;3.28;;;;;;;;;;5071763;28;20056;-40
2023/12/30 13:00:21;;;;;;;23.77;2.33;;;;;;;;;;5071724;28;20096;-40
2023/12/30 13:02:48;;;;;;;19.23;2.53;;;;;;;;;;5071607;28;20298;-39
2023/12/30 13:05:17;;;;;;;17.17;2.60;;;;;;;;;;5069941;28;20036;-42
2023/12/30 13:07:44;;;;;;;13.90;1.95;;;;;;;;;;5051564;28;20032;-40
2023/12/30 13:12:57;;;;;;;19.58;2.10;;;;;;;;;;5061979;28;20055;-40
2023/12/30 13:15:25;;;;;;;17.38;2.13;;;;;;;;;;5068721;28;20023;-39
2023/12/30 13:17:53;;;;;;;14.52;1.98;;;;;;;;;;5071443;28;20036;-40
2023/12/30 13:20:20;;;;;;;19.73;2.28;;;;;;;;;;5071175;28;20040;-40
2023/12/30 13:22:56;;;;;;;17.45;2.05;;;;;;;;;;5070911;28;20028;-40
2023/12/30 13:25:23;;;;;;;26.25;2.17;;;;;;;;;;5071053;28;20066;-40
2023/12/30 13:27:51;;;;;;;18.17;2.58;;;;;;;;;;5071513;28;20490;-40
2023/12/30 13:30:22;;;;;;;18.55;2.58;;;;;;;;;;5070614;28;20494;-40
2023/12/30 13:33:00;;;;;;;21.77;2.33;;;;;;;;;;5070825;28;20033;-40
2023/12/30 13:35:38;;;;;;;11.25;1.67;;;;;;;;;;5069330;28;20279;-40
2023/12/30 13:38:15;;;;;;;21.88;2.67;;;;;;;;;;5071274;28;20028;-39
2023/12/30 13:40:47;;;;;;;15.82;2.20;;;;;;;;;;5071130;28;20110;-40
2023/12/30 13:43:16;;;;;;;23.93;2.00;;;;;;;;;;5070911;28;20111;-40
2023/12/30 13:45:46;;;;;;;55.38;4.20;;;;;;;;;;5070720;28;20090;-39
2023/12/30 13:51:00;;;;;;;53.42;4.38;;;;;;;;;;5069418;28;20043;-37
2023/12/30 13:53:28;;;;;;;74.28;4.93;;;;;;;;;;5070491;28;20044;-37
2023/12/30 13:55:58;;;;;;;121.60;7.30;;;;;;;;;;5068790;28;20060;-37
2023/12/30 13:58:25;;;;;;;47.03;3.70;;;;;;;;;;5074374;28;20210;-38
2023/12/30 14:00:54;;;;;;;45.70;4.13;;;;;;;;;;5074895;28;20394;-39
2023/12/30 14:03:21;;;;;;;26.33;3.08;;;;;;;;;;5073226;28;20047;-39
2023/12/30 14:05:48;;;;;;;33.40;3.60;;;;;;;;;;5074395;28;20405;-40
2023/12/30 14:08:30;;;;;;;35.50;3.35;;;;;;;;;;5074317;28;20021;-40
2023/12/30 14:11:00;;;;;;;33.15;2.78;;;;;;;;;;5074740;28;20028;-45
2023/12/30 14:13:27;;;;;;;32.30;3.30;;;;;;;;;;5073425;28;20044;-49
2023/12/30 14:15:54;;;;;;;33.42;3.15;;;;;;;;;;5073538;28;20070;-44
2023/12/30 14:18:21;;;;;;;21.90;2.65;;;;;;;;;;5074266;28;20017;-48
2023/12/30 14:20:48;;;;;;;25.42;2.55;;;;;;;;;;5074005;28;20089;-44
2023/12/30 14:23:15;;;;;;;24.88;2.95;;;;;;;;;;5073912;28;20020;-49
2023/12/30 14:25:44;;;;;;;20.80;2.83;;;;;;;;;;5072745;28;20124;-44
2023/12/30 14:28:11;;;;;;;26.70;3.13;;;;;;;;;;5073985;28;20127;-44
2023/12/30 14:30:38;;;;;;;27.80;2.97;;;;;;;;;;5073372;28;20038;-44
2023/12/30 14:33:05;;;;;;;15.50;2.45;;;;;;;;;;5073523;28;20504;-45
2023/12/30 14:35:32;;;;;;;23.13;2.63;;;;;;;;;;5071989;28;20086;-44
2023/12/30 14:38:01;;;;;;;26.77;2.85;;;;;;;;;;5073215;28;20083;-45
2023/12/30 14:40:28;;;;;;;17.88;2.47;;;;;;;;;;5073171;28;20028;-45
2023/12/30 14:42:55;;;;;;;25.40;2.60;;;;;;;;;;5073360;28;20082;-44